createdAt,value
2019-06-01T00:01:04.460Z,10.58
2019-06-01T00:04:11.716Z,10.59
2019-06-01T00:07:18.878Z,10.56
2019-06-01T00:10:26.225Z,10.51
2019-06-01T00:13:33.774Z,10.50
2019-06-01T00:16:42.002Z,10.44
2019-06-01T00:19:50.331Z,10.43
2019-06-01T00:22:57.593Z,10.37
2019-06-01T00:26:04.972Z,10.44
2019-06-01T00:29:12.135Z,10.53
2019-06-01T00:32:19.307Z,10.43
2019-06-01T00:35:26.815Z,10.33
2019-06-01T00:38:34.473Z,10.28
2019-06-01T00:41:42.130Z,10.25
2019-06-01T00:44:50.437Z,10.12
2019-06-01T00:47:57.860Z,10.14
2019-06-01T00:51:05.119Z,10.12
2019-06-01T00:54:12.585Z,10.05
2019-06-01T00:57:22.124Z,10.00
2019-06-01T01:00:42.878Z,10.01
2019-06-01T01:03:38.537Z,9.97
2019-06-01T01:06:46.490Z,9.98
2019-06-01T01:09:55.019Z,9.94
2019-06-01T01:13:04.961Z,9.94
2019-06-01T01:16:12.326Z,9.94
2019-06-01T01:19:19.699Z,9.89
2019-06-01T01:22:26.978Z,9.91
2019-06-01T01:25:34.372Z,9.92
2019-06-01T01:28:41.630Z,9.83
2019-06-01T01:31:49.137Z,9.78
2019-06-01T01:34:57.819Z,9.76
2019-06-01T01:38:05.555Z,9.75
2019-06-01T01:41:12.705Z,10.00
2019-06-01T01:44:19.955Z,9.86
2019-06-01T01:47:27.320Z,9.78
2019-06-01T01:50:34.873Z,9.67
2019-06-01T01:53:42.312Z,9.64
2019-06-01T01:56:49.956Z,9.57
2019-06-01T01:59:57.435Z,9.58
2019-06-01T02:03:08.574Z,9.47
2019-06-01T02:06:16.064Z,9.44
2019-06-01T02:09:23.872Z,9.50
2019-06-01T02:12:31.069Z,9.45
2019-06-01T02:15:40.332Z,9.44
2019-06-01T02:18:47.827Z,9.43
2019-06-01T02:21:54.981Z,9.40
2019-06-01T02:25:04.027Z,9.40
2019-06-01T02:28:11.279Z,9.40
2019-06-01T02:31:18.415Z,9.40
2019-06-01T02:34:25.787Z,9.38
2019-06-01T02:37:33.401Z,9.36
2019-06-01T02:40:40.862Z,9.29
2019-06-01T02:43:48.124Z,9.27
2019-06-01T02:46:55.776Z,9.28
2019-06-01T02:50:06.417Z,9.45
2019-06-01T02:53:13.873Z,9.35
2019-06-01T02:56:21.534Z,9.29
2019-06-01T02:59:28.912Z,9.26
2019-06-01T03:02:36.847Z,9.39
2019-06-01T03:05:46.100Z,9.24
2019-06-01T03:08:57.690Z,9.17
2019-06-01T03:12:08.229Z,9.09
2019-06-01T03:15:16.464Z,9.04
2019-06-01T03:18:26.231Z,9.03
2019-06-01T03:21:33.794Z,9.07
2019-06-01T03:24:46.690Z,9.08
2019-06-01T03:27:58.257Z,9.40
2019-06-01T03:31:08.140Z,9.62
2019-06-01T03:34:15.130Z,9.41
2019-06-01T03:37:22.873Z,9.25
2019-06-01T03:40:30.343Z,9.21
2019-06-01T03:43:37.718Z,9.20
2019-06-01T03:46:45.477Z,9.21
2019-06-01T03:49:53.240Z,9.23
2019-06-01T03:53:01.661Z,9.31
2019-06-01T03:56:09.146Z,9.32
2019-06-01T03:59:16.410Z,9.52
2019-06-01T04:02:32.866Z,9.53
2019-06-01T04:05:33.292Z,9.56
2019-06-01T04:08:40.598Z,9.63
2019-06-01T04:11:47.734Z,9.63
2019-06-01T04:14:54.906Z,9.68
2019-06-01T04:18:03.801Z,9.87
2019-06-01T04:21:12.154Z,10.00
2019-06-01T04:24:19.451Z,10.12
2019-06-01T04:27:27.059Z,10.30
2019-06-01T04:30:34.778Z,10.37
2019-06-01T04:33:42.030Z,10.45
2019-06-01T04:36:49.356Z,10.55
2019-06-01T04:39:56.511Z,10.67
2019-06-01T04:43:03.973Z,10.82
2019-06-01T04:46:12.381Z,10.97
2019-06-01T04:49:19.800Z,11.11
2019-06-01T04:52:26.958Z,11.23
2019-06-01T04:55:34.429Z,11.44
2019-06-01T04:58:41.678Z,11.50
2019-06-01T05:01:48.931Z,11.59
2019-06-01T05:04:56.448Z,11.73
2019-06-01T05:08:05.063Z,11.82
2019-06-01T05:11:13.517Z,11.96
2019-06-01T05:14:21.194Z,12.12
2019-06-01T05:17:28.793Z,12.30
2019-06-01T05:20:36.502Z,12.51
2019-06-01T05:23:43.638Z,12.66
2019-06-01T05:26:50.814Z,12.84
2019-06-01T05:29:58.323Z,13.00
2019-06-01T05:33:22.429Z,13.21
2019-06-01T05:36:16.164Z,13.31
2019-06-01T05:39:24.033Z,13.63
2019-06-01T05:42:31.536Z,13.79
2019-06-01T05:45:38.698Z,13.84
2019-06-01T05:48:46.224Z,14.04
2019-06-01T05:51:53.494Z,14.50
2019-06-01T05:55:00.756Z,14.97
2019-06-01T05:58:07.923Z,15.93
2019-06-01T06:01:16.360Z,17.41
2019-06-01T06:04:24.614Z,19.93
2019-06-01T06:07:32.156Z,22.29
2019-06-01T06:10:39.451Z,24.14
2019-06-01T06:13:46.706Z,25.18
2019-06-01T06:16:54.421Z,25.55
2019-06-01T06:20:02.086Z,26.30
2019-06-01T06:23:09.404Z,26.92
2019-06-01T06:26:18.376Z,27.80
2019-06-01T06:29:26.034Z,27.46
2019-06-01T06:32:33.816Z,26.72
2019-06-01T06:35:41.020Z,26.96
2019-06-01T06:38:48.191Z,27.57
2019-06-01T06:41:55.476Z,27.90
2019-06-01T06:45:03.816Z,27.32
2019-06-01T06:48:11.213Z,28.89
2019-06-01T06:51:19.301Z,27.03
2019-06-01T06:54:26.555Z,28.26
2019-06-01T06:57:33.816Z,28.60
2019-06-01T07:00:41.430Z,28.40
2019-06-01T07:03:48.570Z,28.39
2019-06-01T07:06:56.068Z,28.42
2019-06-01T07:10:04.166Z,27.52
2019-06-01T07:13:11.424Z,26.53
2019-06-01T07:16:19.327Z,27.46
2019-06-01T07:19:27.910Z,26.41
2019-06-01T07:22:35.359Z,25.64
2019-06-01T07:25:42.542Z,26.72
2019-06-01T07:28:49.929Z,27.91
2019-06-01T07:31:57.148Z,27.86
2019-06-01T07:35:04.785Z,27.40
2019-06-01T07:38:12.466Z,26.21
2019-06-01T07:41:20.667Z,24.54
2019-06-01T07:44:29.248Z,26.85
2019-06-01T07:47:36.798Z,26.05
2019-06-01T07:50:44.061Z,26.98
2019-06-01T07:53:51.240Z,27.59
2019-06-01T07:56:58.583Z,27.97
2019-06-01T08:00:06.795Z,27.25
2019-06-01T08:03:14.568Z,28.01
2019-06-01T08:06:23.833Z,28.32
2019-06-01T08:09:31.840Z,27.79
2019-06-01T08:12:39.285Z,28.18
2019-06-01T08:15:47.025Z,27.90
2019-06-01T08:18:54.540Z,27.89
2019-06-01T08:22:02.029Z,27.40
2019-06-01T08:25:09.825Z,28.05
2019-06-01T08:28:17.479Z,28.02
2019-06-01T08:31:26.544Z,28.21
2019-06-01T08:34:34.358Z,26.38
2019-06-01T08:37:41.663Z,24.47
2019-06-01T08:40:49.448Z,23.10
2019-06-01T08:43:56.956Z,23.01
2019-06-01T08:47:04.529Z,23.50
2019-06-01T08:50:12.176Z,24.67
2019-06-01T08:53:19.525Z,25.82
2019-06-01T08:56:28.149Z,26.38
2019-06-01T08:59:35.861Z,25.70
2019-06-01T09:02:43.968Z,24.63
2019-06-01T09:05:51.466Z,25.32
2019-06-01T09:08:59.221Z,26.40
2019-06-01T09:12:06.756Z,26.95
2019-06-01T09:15:16.303Z,27.01
2019-06-01T09:18:25.737Z,27.37
2019-06-01T09:21:33.616Z,27.18
2019-06-01T09:24:41.561Z,26.93
2019-06-01T09:27:49.063Z,26.68
2019-06-01T09:30:56.498Z,26.25
2019-06-01T09:34:04.071Z,26.31
2019-06-01T09:37:11.578Z,26.72
2019-06-01T09:40:19.283Z,26.57
2019-06-01T09:43:26.801Z,25.95
2019-06-01T09:46:35.621Z,26.06
2019-06-01T09:49:42.914Z,26.04
2019-06-01T09:52:50.090Z,25.93
2019-06-01T09:55:57.489Z,25.52
2019-06-01T09:59:05.658Z,25.16
2019-06-01T10:02:13.164Z,25.05
2019-06-01T10:05:20.655Z,25.35
2019-06-01T10:08:27.899Z,25.31
2019-06-01T10:11:36.096Z,25.34
2019-06-01T10:14:43.447Z,24.74
2019-06-01T10:17:51.889Z,24.48
2019-06-01T10:20:59.280Z,24.65
2019-06-01T10:24:06.422Z,24.06
2019-06-01T10:27:13.804Z,23.52
2019-06-01T10:30:21.554Z,23.53
2019-06-01T10:33:28.719Z,23.56
2019-06-01T10:36:36.108Z,23.45
2019-06-01T10:39:43.528Z,23.66
2019-06-01T10:42:51.480Z,23.74
2019-06-01T10:45:59.021Z,23.32
2019-06-01T10:49:06.824Z,23.59
2019-06-01T10:52:14.342Z,23.47
2019-06-01T10:55:22.727Z,23.90
2019-06-01T10:58:30.025Z,23.74
2019-06-01T11:01:38.874Z,24.06
2019-06-01T11:04:46.260Z,23.41
2019-06-01T11:07:53.441Z,23.62
2019-06-01T11:11:00.938Z,23.85
2019-06-01T11:14:08.540Z,24.17
2019-06-01T11:17:16.250Z,23.96
2019-06-01T11:20:23.543Z,23.81
2019-06-01T11:23:31.536Z,24.07
2019-06-01T11:26:39.740Z,24.10
2019-06-01T11:29:51.459Z,23.65
2019-06-01T11:32:56.534Z,23.83
2019-06-01T11:36:04.158Z,23.91
2019-06-01T11:39:12.000Z,23.79
2019-06-01T11:42:20.156Z,23.92
2019-06-01T11:45:29.380Z,24.11
2019-06-01T11:48:37.182Z,24.39
2019-06-01T11:51:45.262Z,24.63
2019-06-01T11:54:53.336Z,24.90
2019-06-01T11:58:00.895Z,24.54
2019-06-01T12:01:08.444Z,24.50
2019-06-01T12:04:15.799Z,24.63
2019-06-01T12:07:23.409Z,24.88
2019-06-01T12:10:31.117Z,25.00
2019-06-01T12:13:38.271Z,25.05
2019-06-01T12:16:46.810Z,25.25
2019-06-01T12:19:54.562Z,25.46
2019-06-01T12:23:02.051Z,25.32
2019-06-01T12:26:09.204Z,25.36
2019-06-01T12:29:16.637Z,25.65
2019-06-01T12:32:24.159Z,26.00
2019-06-01T12:35:31.407Z,25.85
2019-06-01T12:38:51.233Z,26.05
2019-06-01T12:41:58.387Z,25.99
2019-06-01T12:45:08.553Z,25.89
2019-06-01T12:48:16.373Z,25.53
2019-06-01T12:51:24.383Z,25.18
2019-06-01T12:54:31.635Z,25.21
2019-06-01T12:57:39.056Z,24.84
2019-06-01T13:00:46.305Z,25.10
2019-06-01T13:03:53.607Z,25.03
2019-06-01T13:07:01.022Z,25.40
2019-06-01T13:10:09.242Z,25.50
2019-06-01T13:13:16.763Z,24.98
2019-06-01T13:16:24.213Z,25.10
2019-06-01T13:19:32.162Z,24.83
2019-06-01T13:22:41.189Z,25.09
2019-06-01T13:25:49.700Z,25.40
2019-06-01T13:28:57.509Z,25.59
2019-06-01T13:32:04.985Z,25.64
2019-06-01T13:35:12.753Z,25.77
2019-06-01T13:38:20.331Z,25.95
2019-06-01T13:41:27.791Z,25.47
2019-06-01T13:44:35.283Z,25.02
2019-06-01T13:47:43.395Z,25.29
2019-06-01T13:50:52.011Z,25.26
2019-06-01T13:53:59.393Z,25.58
2019-06-01T13:57:06.686Z,25.75
2019-06-01T14:00:15.805Z,25.75
2019-06-01T14:03:45.001Z,25.54
2019-06-01T14:06:53.223Z,25.53
2019-06-01T14:10:03.308Z,25.50
2019-06-01T14:13:10.708Z,25.39
2019-06-01T14:16:17.909Z,25.10
2019-06-01T14:19:25.376Z,25.44
2019-06-01T14:22:32.885Z,25.27
2019-06-01T14:25:40.841Z,25.19
2019-06-01T14:28:48.334Z,24.93
2019-06-01T14:31:57.137Z,24.66
2019-06-01T14:35:05.445Z,24.87
2019-06-01T14:38:12.699Z,24.70
2019-06-01T14:41:20.223Z,24.63
2019-06-01T14:44:27.974Z,24.51
2019-06-01T14:47:35.282Z,24.65
2019-06-01T14:50:42.909Z,24.68
2019-06-01T14:53:51.656Z,24.95
2019-06-01T14:56:59.063Z,25.06
2019-06-01T15:00:07.673Z,24.84
2019-06-01T15:03:15.442Z,25.06
2019-06-01T15:06:23.261Z,25.28
2019-06-01T15:09:30.858Z,25.34
2019-06-01T15:12:38.574Z,24.99
2019-06-01T15:15:46.087Z,25.12
2019-06-01T15:18:54.777Z,25.18
2019-06-01T15:22:04.149Z,25.21
2019-06-01T15:25:12.093Z,25.36
2019-06-01T15:28:19.461Z,25.30
2019-06-01T15:31:26.692Z,25.25
2019-06-01T15:34:33.863Z,25.21
2019-06-01T15:37:41.139Z,24.97
2019-06-01T15:40:48.686Z,24.80
2019-06-01T15:43:57.022Z,24.60
2019-06-01T15:47:05.134Z,24.50
2019-06-01T15:50:13.456Z,24.50
2019-06-01T15:53:21.540Z,24.63
2019-06-01T15:56:29.239Z,24.61
2019-06-01T15:59:36.882Z,24.64
2019-06-01T16:02:44.765Z,24.67
2019-06-01T16:05:53.024Z,24.83
2019-06-01T16:09:01.664Z,25.10
2019-06-01T16:12:09.257Z,25.21
2019-06-01T16:15:16.811Z,25.17
2019-06-01T16:18:24.990Z,25.16
2019-06-01T16:21:32.325Z,25.27
2019-06-01T16:24:40.523Z,25.23
2019-06-01T16:27:48.338Z,25.21
2019-06-01T16:30:56.367Z,25.14
2019-06-01T16:34:05.229Z,25.26
2019-06-01T16:37:13.250Z,25.30
2019-06-01T16:40:20.778Z,25.32
2019-06-01T16:43:28.095Z,25.88
2019-06-01T16:46:35.509Z,27.22
2019-06-01T16:49:43.717Z,29.00
2019-06-01T16:52:51.135Z,30.05
2019-06-01T16:55:59.666Z,29.44
2019-06-01T16:59:07.379Z,28.74
2019-06-01T17:02:15.447Z,27.74
2019-06-01T17:05:23.310Z,26.90
2019-06-01T17:08:31.048Z,26.30
2019-06-01T17:11:38.702Z,25.79
2019-06-01T17:14:46.503Z,24.99
2019-06-01T17:17:53.901Z,24.67
2019-06-01T17:21:01.536Z,24.47
2019-06-01T17:24:09.052Z,24.40
2019-06-01T17:27:16.966Z,24.23
2019-06-01T17:30:25.088Z,24.15
2019-06-01T17:33:34.947Z,24.24
2019-06-01T17:36:42.692Z,24.23
2019-06-01T17:39:50.680Z,24.26
2019-06-01T17:42:58.214Z,24.17
2019-06-01T17:46:07.281Z,24.09
2019-06-01T17:49:15.110Z,24.05
2019-06-01T17:52:22.813Z,23.84
2019-06-01T17:55:33.736Z,23.63
2019-06-01T17:58:41.267Z,23.56
2019-06-01T18:01:50.529Z,23.31
2019-06-01T18:04:57.724Z,23.12
2019-06-01T18:08:06.139Z,22.89
2019-06-01T18:11:14.275Z,22.68
2019-06-01T18:14:22.364Z,22.63
2019-06-01T18:17:29.930Z,22.33
2019-06-01T18:20:37.713Z,22.17
2019-06-01T18:23:49.022Z,22.03
2019-06-01T18:26:55.246Z,21.84
2019-06-01T18:30:04.747Z,21.73
2019-06-01T18:33:13.229Z,21.55
2019-06-01T18:36:21.281Z,21.44
2019-06-01T18:39:28.977Z,21.27
2019-06-01T18:42:36.893Z,21.14
2019-06-01T18:45:46.334Z,20.93
2019-06-01T18:48:53.748Z,20.80
2019-06-01T18:52:01.431Z,20.65
2019-06-01T18:55:10.593Z,20.46
2019-06-01T18:58:18.996Z,20.31
2019-06-01T19:01:26.443Z,20.03
2019-06-01T19:04:33.843Z,19.79
2019-06-01T19:07:41.886Z,19.54
2019-06-01T19:10:50.010Z,19.38
2019-06-01T19:13:57.419Z,19.22
2019-06-01T19:17:06.130Z,19.09
2019-06-01T19:20:15.420Z,18.81
2019-06-01T19:23:23.108Z,18.59
2019-06-01T19:26:32.010Z,18.37
2019-06-01T19:29:39.368Z,18.22
2019-06-01T19:32:46.771Z,18.05
2019-06-01T19:35:55.828Z,17.93
2019-06-01T19:39:07.070Z,17.77
2019-06-01T19:42:15.493Z,17.64
2019-06-01T19:45:28.777Z,17.47
2019-06-01T19:48:33.045Z,17.43
2019-06-01T19:51:40.611Z,17.30
2019-06-01T19:54:47.888Z,17.38
2019-06-01T19:57:55.395Z,17.17
2019-06-01T20:01:03.734Z,17.01
2019-06-01T20:04:12.336Z,16.88
2019-06-01T20:07:21.287Z,16.75
2019-06-01T20:10:29.071Z,16.71
2019-06-01T20:13:36.573Z,16.54
2019-06-01T20:16:46.594Z,16.55
2019-06-01T20:19:54.200Z,16.37
2019-06-01T20:23:02.209Z,16.24
2019-06-01T20:26:09.647Z,16.16
2019-06-01T20:29:17.658Z,16.06
2019-06-01T20:32:25.205Z,16.00
2019-06-01T20:35:33.101Z,15.97
2019-06-01T20:38:40.801Z,15.90
2019-06-01T20:41:48.226Z,15.78
2019-06-01T20:44:55.865Z,15.71
2019-06-01T20:48:03.357Z,15.63
2019-06-01T20:51:11.070Z,15.59
2019-06-01T20:54:19.055Z,15.52
2019-06-01T20:57:27.660Z,15.49
2019-06-01T21:00:35.464Z,15.41
2019-06-01T21:03:43.079Z,15.39
2019-06-01T21:06:50.950Z,15.30
2019-06-01T21:09:58.537Z,15.23
2019-06-01T21:13:08.031Z,15.15
2019-06-01T21:16:16.090Z,15.07
2019-06-01T21:19:24.504Z,15.02
2019-06-01T21:22:33.949Z,14.97
2019-06-01T21:25:41.526Z,14.94
2019-06-01T21:28:49.346Z,14.84
2019-06-01T21:31:57.083Z,14.80
2019-06-01T21:35:05.532Z,14.86
2019-06-01T21:38:15.275Z,14.76
2019-06-01T21:41:24.074Z,14.71
2019-06-01T21:44:31.814Z,14.66
2019-06-01T21:47:39.226Z,14.58
2019-06-01T21:50:46.633Z,14.51
2019-06-01T21:53:54.175Z,14.44
2019-06-01T21:57:01.621Z,14.41
2019-06-01T22:00:11.294Z,14.37
2019-06-01T22:03:19.211Z,14.35
2019-06-01T22:06:27.675Z,14.32
2019-06-01T22:09:34.950Z,14.24
2019-06-01T22:12:43.441Z,14.18
2019-06-01T22:15:50.759Z,14.12
2019-06-01T22:18:58.351Z,14.07
2019-06-01T22:25:15.387Z,14.02
2019-06-01T22:28:22.559Z,13.99
2019-06-01T22:31:29.896Z,13.96
2019-06-01T22:34:37.467Z,13.97
2019-06-01T22:37:44.872Z,13.91
2019-06-01T22:40:52.127Z,13.90
2019-06-01T22:43:59.655Z,13.85
2019-06-01T22:47:07.068Z,13.78
2019-06-01T22:50:15.050Z,13.67
2019-06-01T22:53:22.305Z,13.63
2019-06-01T22:56:29.570Z,13.65
2019-06-01T22:59:37.026Z,13.52
2019-06-01T23:02:44.626Z,13.52
2019-06-01T23:05:52.122Z,13.51
2019-06-01T23:08:59.397Z,13.46
2019-06-01T23:12:06.927Z,13.46
2019-06-01T23:15:14.507Z,13.35
2019-06-01T23:18:21.861Z,13.33
2019-06-01T23:21:30.019Z,13.37
2019-06-01T23:24:37.793Z,13.42
2019-06-01T23:27:45.134Z,13.31
2019-06-01T23:30:52.282Z,13.26
2019-06-01T23:33:59.528Z,13.23
2019-06-01T23:37:06.892Z,13.18
2019-06-01T23:40:14.382Z,13.09
2019-06-01T23:43:22.684Z,13.11
2019-06-01T23:46:31.065Z,12.98
2019-06-01T23:49:38.288Z,12.99
2019-06-01T23:52:45.476Z,12.99
2019-06-01T23:55:52.871Z,12.90
2019-06-01T23:59:00.118Z,12.87
